Time;durP1;ratioP1;P1;durP2;ratioP2;P2;SDS_P1;SDS_P2;PMS_P1;PMS_P2;Temp;Humidity;BMP_temperature;BMP_pressure;BME280_temperature;BME280_humidity;BME280_pressure;Samples;Min_cycle;Max_cycle;Signal;HPM_P1;HPM_P2
2023/10/15 00:00:15;;;;;;;7.37;2.00;;;;;;;;;;5014940;28;20899;-69
2023/10/15 00:02:44;;;;;;;5.40;2.57;;;;;;;;;;5013759;28;20454;-68
2023/10/15 00:05:20;;;;;;;3.53;1.70;;;;;;;;;;5013381;28;20450;-68
2023/10/15 00:07:47;;;;;;;3.93;1.93;;;;;;;;;;5014892;28;20442;-66
2023/10/15 00:10:14;;;;;;;6.03;2.13;;;;;;;;;;5014996;28;20408;-67
2023/10/15 00:12:41;;;;;;;4.07;1.87;;;;;;;;;;5015135;28;20475;-67
2023/10/15 00:15:11;;;;;;;3.60;1.47;;;;;;;;;;5014840;28;20915;-67
2023/10/15 00:17:37;;;;;;;3.17;1.43;;;;;;;;;;5013913;28;20434;-67
2023/10/15 00:20:05;;;;;;;4.43;1.70;;;;;;;;;;5015741;28;20403;-68
2023/10/15 00:22:31;;;;;;;3.40;1.53;;;;;;;;;;5018115;28;20791;-68
2023/10/15 00:24:57;;;;;;;6.10;1.83;;;;;;;;;;5025805;28;20415;-68
2023/10/15 00:27:23;;;;;;;4.70;2.20;;;;;;;;;;5019268;28;20475;-67
2023/10/15 00:29:50;;;;;;;4.70;2.33;;;;;;;;;;5024489;28;20418;-68
2023/10/15 00:32:15;;;;;;;3.47;2.00;;;;;;;;;;5021374;28;20464;-68
2023/10/15 00:34:42;;;;;;;4.77;1.67;;;;;;;;;;5017324;28;20890;-67
2023/10/15 00:37:08;;;;;;;3.30;1.43;;;;;;;;;;5017046;28;20427;-67
2023/10/15 00:39:41;;;;;;;11.00;1.93;;;;;;;;;;5018341;28;20773;-68
2023/10/15 00:42:07;;;;;;;9.43;1.40;;;;;;;;;;5018117;28;20430;-68
2023/10/15 00:44:33;;;;;;;5.20;1.73;;;;;;;;;;5016910;28;20894;-68
2023/10/15 00:47:03;;;;;;;3.57;1.50;;;;;;;;;;5013342;28;20566;-68
2023/10/15 00:49:30;;;;;;;4.93;1.63;;;;;;;;;;5013282;28;20462;-67
2023/10/15 00:51:56;;;;;;;4.03;1.83;;;;;;;;;;5013467;28;20424;-67
2023/10/15 00:54:23;;;;;;;4.30;2.00;;;;;;;;;;5013421;28;20401;-67
2023/10/15 00:56:49;;;;;;;2.50;1.30;;;;;;;;;;5013355;28;20411;-68
2023/10/15 01:01:54;;;;;;;4.43;1.63;;;;;;;;;;5013138;28;20467;-67
2023/10/15 01:04:31;;;;;;;3.73;1.67;;;;;;;;;;5012623;28;20493;-68
2023/10/15 01:07:00;;;;;;;3.47;1.30;;;;;;;;;;5013066;28;20450;-67
2023/10/15 01:09:30;;;;;;;5.50;2.23;;;;;;;;;;5013427;28;20417;-68
2023/10/15 01:11:58;;;;;;;3.10;1.50;;;;;;;;;;5013262;28;20431;-69
2023/10/15 01:14:31;;;;;;;3.50;2.20;;;;;;;;;;5013084;28;20897;-68
2023/10/15 01:16:57;;;;;;;3.23;1.70;;;;;;;;;;5012752;28;20431;-67
2023/10/15 01:19:33;;;;;;;3.80;1.67;;;;;;;;;;5012992;28;20481;-67
2023/10/15 01:22:03;;;;;;;5.70;1.80;;;;;;;;;;5012651;28;20438;-67
2023/10/15 01:24:33;;;;;;;6.77;2.20;;;;;;;;;;5012902;28;20403;-67
2023/10/15 01:27:11;;;;;;;5.50;2.20;;;;;;;;;;5012601;28;20469;-68
2023/10/15 01:29:44;;;;;;;3.87;1.77;;;;;;;;;;5012684;28;20431;-67
2023/10/15 01:32:13;;;;;;;2.80;1.70;;;;;;;;;;5011423;28;20446;-69
2023/10/15 01:34:45;;;;;;;10.03;2.07;;;;;;;;;;5012549;28;20428;-68
2023/10/15 01:37:15;;;;;;;4.67;1.60;;;;;;;;;;5012602;28;20890;-68
2023/10/15 01:39:46;;;;;;;3.77;1.70;;;;;;;;;;5012763;28;20498;-68
2023/10/15 01:42:31;;;;;;;5.13;1.77;;;;;;;;;;5013090;28;20792;-67
2023/10/15 01:47:37;;;;;;;4.83;1.87;;;;;;;;;;5012419;28;20830;-69
2023/10/15 01:50:08;;;;;;;8.87;1.53;;;;;;;;;;5012544;28;20851;-67
2023/10/15 01:52:39;;;;;;;3.80;1.80;;;;;;;;;;5012426;28;20754;-67
2023/10/15 01:55:05;;;;;;;2.27;1.57;;;;;;;;;;5012153;28;20518;-67
2023/10/15 01:57:32;;;;;;;3.30;1.37;;;;;;;;;;5010997;28;20420;-66
2023/10/15 02:02:40;;;;;;;3.93;2.30;;;;;;;;;;5127103;22;20499;-66
2023/10/15 02:05:16;;;;;;;3.00;1.40;;;;;;;;;;5031938;28;20952;-65
2023/10/15 02:07:42;;;;;;;4.17;1.57;;;;;;;;;;5031551;28;20461;-66
2023/10/15 02:10:12;;;;;;;2.77;1.70;;;;;;;;;;5032133;28;20591;-66
2023/10/15 02:12:38;;;;;;;6.97;1.57;;;;;;;;;;5031975;28;20430;-66
2023/10/15 02:15:14;;;;;;;2.80;1.67;;;;;;;;;;5032183;28;20434;-66
2023/10/15 02:17:43;;;;;;;4.63;1.57;;;;;;;;;;5031261;28;20508;-66
2023/10/15 02:20:12;;;;;;;8.10;2.10;;;;;;;;;;5019007;28;20435;-66
2023/10/15 02:22:38;;;;;;;3.60;1.43;;;;;;;;;;5010857;28;20447;-66
2023/10/15 02:25:04;;;;;;;6.03;2.47;;;;;;;;;;5012165;28;20415;-67
2023/10/15 02:27:35;;;;;;;3.97;1.60;;;;;;;;;;5011826;28;20542;-67
2023/10/15 02:30:01;;;;;;;6.00;1.73;;;;;;;;;;5012158;28;20906;-66
2023/10/15 02:34:54;;;;;;;4.93;1.50;;;;;;;;;;5031589;28;20814;-67
2023/10/15 02:37:23;;;;;;;3.50;1.30;;;;;;;;;;5031550;28;20750;-67
2023/10/15 02:39:52;;;;;;;3.80;1.50;;;;;;;;;;5031776;28;20502;-67
2023/10/15 02:42:19;;;;;;;2.50;1.40;;;;;;;;;;5031757;28;20506;-66
2023/10/15 02:44:50;;;;;;;3.50;1.63;;;;;;;;;;5031350;28;20484;-70
2023/10/15 02:47:19;;;;;;;7.37;2.10;;;;;;;;;;5031480;28;20465;-67
2023/10/15 02:49:51;;;;;;;3.40;1.17;;;;;;;;;;5030222;28;20426;-67
2023/10/15 02:52:23;;;;;;;5.37;2.03;;;;;;;;;;5031381;28;20439;-67
2023/10/15 02:54:49;;;;;;;4.33;1.77;;;;;;;;;;5030984;28;20503;-67
2023/10/15 02:57:16;;;;;;;4.53;1.93;;;;;;;;;;5024624;28;20585;-67
2023/10/15 02:59:50;;;;;;;1.97;1.17;;;;;;;;;;5011608;28;20419;-67
2023/10/15 03:02:17;;;;;;;2.27;1.00;;;;;;;;;;5011450;28;20577;-67
2023/10/15 03:04:49;;;;;;;2.77;1.30;;;;;;;;;;5012878;28;20420;-68
2023/10/15 03:07:19;;;;;;;6.40;1.47;;;;;;;;;;5013709;28;20541;-68
2023/10/15 03:09:48;;;;;;;5.50;2.10;;;;;;;;;;5015809;28;20419;-68
2023/10/15 03:12:14;;;;;;;3.70;1.80;;;;;;;;;;5015360;28;20435;-68
2023/10/15 03:14:41;;;;;;;3.17;1.43;;;;;;;;;;5015695;28;20415;-68
2023/10/15 03:17:14;;;;;;;5.00;2.03;;;;;;;;;;5015767;28;20423;-68
2023/10/15 03:19:41;;;;;;;3.73;1.87;;;;;;;;;;5014794;28;20435;-68
2023/10/15 03:22:09;;;;;;;3.10;1.57;;;;;;;;;;5015331;28;20470;-68
2023/10/15 03:24:36;;;;;;;4.00;1.87;;;;;;;;;;5015702;28;20411;-68
2023/10/15 03:27:04;;;;;;;3.30;1.80;;;;;;;;;;5016099;28;20462;-68
2023/10/15 03:29:30;;;;;;;3.17;1.73;;;;;;;;;;5018819;28;20495;-68
2023/10/15 03:32:09;;;;;;;5.20;1.77;;;;;;;;;;5019209;28;20529;-68
2023/10/15 03:34:37;;;;;;;3.33;1.40;;;;;;;;;;5031315;28;20894;-68
2023/10/15 03:37:05;;;;;;;2.70;1.20;;;;;;;;;;5025818;28;20889;-68
2023/10/15 03:42:17;;;;;;;5.20;2.50;;;;;;;;;;5039104;28;20434;-68
2023/10/15 03:44:52;;;;;;;4.37;2.00;;;;;;;;;;5039270;28;20465;-68
2023/10/15 03:47:24;;;;;;;3.57;1.87;;;;;;;;;;5039003;28;20450;-68
2023/10/15 03:49:55;;;;;;;5.03;1.53;;;;;;;;;;5030292;28;20437;-68
2023/10/15 03:52:21;;;;;;;6.00;1.73;;;;;;;;;;5019907;28;20435;-66
2023/10/15 03:54:47;;;;;;;4.10;1.30;;;;;;;;;;5019855;28;20475;-67
2023/10/15 03:57:17;;;;;;;6.77;1.40;;;;;;;;;;5019999;28;20409;-67
2023/10/15 03:59:44;;;;;;;4.00;1.83;;;;;;;;;;5020724;28;20420;-67
2023/10/15 04:02:38;;;;;;;3.73;1.30;;;;;;;;;;5032262;28;20470;-67
2023/10/15 04:05:12;;;;;;;7.47;1.90;;;;;;;;;;5040077;28;20537;-67
2023/10/15 04:07:40;;;;;;;3.97;1.03;;;;;;;;;;5039788;28;20951;-67
2023/10/15 04:10:08;;;;;;;3.10;1.10;;;;;;;;;;5039171;28;20444;-67
2023/10/15 04:12:35;;;;;;;3.10;1.30;;;;;;;;;;5038932;28;20421;-67
2023/10/15 04:15:01;;;;;;;4.63;1.30;;;;;;;;;;5019672;28;20428;-68
2023/10/15 04:17:29;;;;;;;3.83;1.77;;;;;;;;;;5019246;28;20413;-68
2023/10/15 04:19:55;;;;;;;6.73;1.87;;;;;;;;;;5019454;28;20415;-68
2023/10/15 04:22:21;;;;;;;3.30;1.40;;;;;;;;;;5019608;28;20882;-68
2023/10/15 04:24:50;;;;;;;2.10;1.20;;;;;;;;;;5020914;28;21014;-68
2023/10/15 04:27:17;;;;;;;2.93;1.80;;;;;;;;;;5038601;28;20460;-68
2023/10/15 04:29:51;;;;;;;5.73;2.13;;;;;;;;;;5038731;28;20421;-68
2023/10/15 04:32:22;;;;;;;5.73;2.53;;;;;;;;;;5038894;28;20454;-68
2023/10/15 04:34:50;;;;;;;8.13;1.97;;;;;;;;;;5038723;28;20495;-68
2023/10/15 04:37:16;;;;;;;3.63;1.50;;;;;;;;;;5031987;28;20429;-68
2023/10/15 04:39:51;;;;;;;4.47;1.13;;;;;;;;;;5018533;28;20441;-67
2023/10/15 04:42:40;;;;;;;3.90;1.90;;;;;;;;;;5019417;28;20444;-67
2023/10/15 04:45:20;;;;;;;4.63;1.63;;;;;;;;;;5019297;28;20438;-67
2023/10/15 04:47:51;;;;;;;4.00;1.90;;;;;;;;;;5018747;28;20468;-67
2023/10/15 04:50:17;;;;;;;4.97;1.70;;;;;;;;;;5032939;28;20474;-67
2023/10/15 04:52:43;;;;;;;3.57;1.73;;;;;;;;;;5036962;28;20444;-67
2023/10/15 04:55:11;;;;;;;4.70;1.90;;;;;;;;;;5037846;28;20411;-67
2023/10/15 04:57:37;;;;;;;6.23;2.03;;;;;;;;;;5037955;28;20422;-67
2023/10/15 05:00:06;;;;;;;8.13;1.80;;;;;;;;;;5037766;28;20534;-67
2023/10/15 05:02:36;;;;;;;3.97;1.47;;;;;;;;;;5038377;28;20447;-67
2023/10/15 05:05:05;;;;;;;6.03;2.13;;;;;;;;;;5017371;28;20438;-67
2023/10/15 05:07:31;;;;;;;5.10;3.20;;;;;;;;;;5017921;28;20462;-67
2023/10/15 05:09:59;;;;;;;5.03;1.80;;;;;;;;;;5018284;28;20456;-67
2023/10/15 05:12:25;;;;;;;3.10;1.67;;;;;;;;;;5018240;28;20782;-67
2023/10/15 05:14:51;;;;;;;5.00;2.00;;;;;;;;;;5036783;28;20485;-67
2023/10/15 05:17:17;;;;;;;4.80;2.03;;;;;;;;;;5037829;28;20763;-69
2023/10/15 05:19:43;;;;;;;7.83;2.57;;;;;;;;;;5038527;28;20459;-67
2023/10/15 05:22:09;;;;;;;7.03;3.00;;;;;;;;;;5036963;28;20520;-67
2023/10/15 05:24:36;;;;;;;3.87;1.80;;;;;;;;;;5036415;28;20910;-67
2023/10/15 05:27:02;;;;;;;6.63;2.77;;;;;;;;;;5016123;28;20462;-67
2023/10/15 05:29:28;;;;;;;4.80;1.40;;;;;;;;;;5015782;28;20803;-67
2023/10/15 05:31:54;;;;;;;3.43;2.30;;;;;;;;;;5014284;28;20478;-67
2023/10/15 05:34:20;;;;;;;2.57;1.83;;;;;;;;;;5016181;28;20450;-67
2023/10/15 05:36:46;;;;;;;3.30;2.03;;;;;;;;;;5017298;28;20597;-67
2023/10/15 05:39:15;;;;;;;2.53;1.67;;;;;;;;;;5036062;28;20848;-67
2023/10/15 05:41:42;;;;;;;3.00;1.80;;;;;;;;;;5003554;28;20461;-67
2023/10/15 05:44:08;;;;;;;3.97;1.77;;;;;;;;;;4995566;28;20426;-67
2023/10/15 05:46:34;;;;;;;4.13;2.03;;;;;;;;;;4994991;28;20475;-68
2023/10/15 05:49:00;;;;;;;5.93;1.93;;;;;;;;;;5002551;28;20941;-67
2023/10/15 05:51:27;;;;;;;3.27;1.63;;;;;;;;;;5035699;28;20428;-67
2023/10/15 05:53:53;;;;;;;3.40;1.83;;;;;;;;;;5034802;28;20420;-67
2023/10/15 05:56:21;;;;;;;3.73;1.53;;;;;;;;;;5034640;28;20415;-68
2023/10/15 05:58:47;;;;;;;4.40;1.90;;;;;;;;;;5025273;28;21084;-67
2023/10/15 06:01:15;;;;;;;2.83;1.40;;;;;;;;;;5006926;28;20463;-67
2023/10/15 06:03:41;;;;;;;4.07;1.60;;;;;;;;;;5035901;28;20448;-68
2023/10/15 06:06:07;;;;;;;5.10;1.90;;;;;;;;;;5036400;28;20459;-68
2023/10/15 06:08:33;;;;;;;2.40;1.33;;;;;;;;;;5036700;28;20419;-68
2023/10/15 06:10:59;;;;;;;3.13;1.83;;;;;;;;;;5019228;28;20489;-68
2023/10/15 06:13:25;;;;;;;3.70;1.43;;;;;;;;;;5016389;28;20436;-68
2023/10/15 06:15:51;;;;;;;6.60;2.20;;;;;;;;;;5016129;28;20415;-68
2023/10/15 06:18:17;;;;;;;2.30;1.00;;;;;;;;;;5015911;28;20429;-68
2023/10/15 06:20:46;;;;;;;4.00;1.63;;;;;;;;;;5016012;28;20786;-68
2023/10/15 06:23:13;;;;;;;2.90;1.73;;;;;;;;;;5035196;28;20426;-67
2023/10/15 06:25:39;;;;;;;2.37;1.30;;;;;;;;;;5018840;28;20463;-69
2023/10/15 06:28:05;;;;;;;3.00;1.47;;;;;;;;;;5015536;28;20417;-68
2023/10/15 06:30:31;;;;;;;9.03;1.60;;;;;;;;;;5015480;28;20412;-68
2023/10/15 06:32:57;;;;;;;2.63;1.40;;;;;;;;;;5015531;28;20408;-68
2023/10/15 06:35:25;;;;;;;2.67;1.20;;;;;;;;;;5015186;28;20781;-68
2023/10/15 06:37:55;;;;;;;2.70;1.37;;;;;;;;;;5015988;28;20705;-68
2023/10/15 06:40:21;;;;;;;3.30;1.23;;;;;;;;;;5015824;28;20432;-68
2023/10/15 06:42:48;;;;;;;5.00;1.77;;;;;;;;;;5015656;28;20806;-68
2023/10/15 06:45:20;;;;;;;4.23;2.80;;;;;;;;;;5015192;28;20414;-68
2023/10/15 06:47:51;;;;;;;4.60;2.00;;;;;;;;;;5031853;28;20468;-68
2023/10/15 06:50:19;;;;;;;3.53;1.53;;;;;;;;;;5019515;28;20440;-68
2023/10/15 06:52:45;;;;;;;2.60;1.20;;;;;;;;;;5015232;28;20996;-68
2023/10/15 06:55:13;;;;;;;3.60;1.50;;;;;;;;;;5012913;28;20464;-69
2023/10/15 06:57:39;;;;;;;2.27;1.07;;;;;;;;;;5013879;28;20448;-67
2023/10/15 07:00:21;;;;;;;3.53;1.43;;;;;;;;;;5015716;28;20425;-67
2023/10/15 07:02:47;;;;;;;1.93;0.90;;;;;;;;;;5014221;28;20520;-68
2023/10/15 07:05:13;;;;;;;4.20;1.60;;;;;;;;;;5015728;28;20495;-67
2023/10/15 07:07:38;;;;;;;9.60;2.03;;;;;;;;;;5015485;28;20455;-67
2023/10/15 07:10:05;;;;;;;2.73;1.70;;;;;;;;;;5015218;28;20948;-67
2023/10/15 07:12:32;;;;;;;2.13;1.30;;;;;;;;;;5022381;28;21016;-68
2023/10/15 07:14:58;;;;;;;3.07;1.53;;;;;;;;;;5035258;28;20441;-67
2023/10/15 07:17:24;;;;;;;8.80;1.70;;;;;;;;;;5034939;28;20502;-67
2023/10/15 07:19:50;;;;;;;3.90;1.50;;;;;;;;;;5033882;28;20525;-67
2023/10/15 07:22:16;;;;;;;3.93;1.80;;;;;;;;;;5032915;28;20452;-67
2023/10/15 07:24:42;;;;;;;2.23;1.27;;;;;;;;;;5034700;28;20413;-67
2023/10/15 07:27:08;;;;;;;4.10;1.93;;;;;;;;;;5034305;28;20533;-67
2023/10/15 07:29:33;;;;;;;4.17;1.80;;;;;;;;;;5034726;28;20417;-66
2023/10/15 07:31:59;;;;;;;5.07;2.37;;;;;;;;;;5034567;28;20427;-67
2023/10/15 07:34:28;;;;;;;5.90;1.73;;;;;;;;;;5018045;28;20464;-67
2023/10/15 07:36:58;;;;;;;3.70;1.90;;;;;;;;;;5014347;28;20452;-67
2023/10/15 07:39:24;;;;;;;3.23;1.63;;;;;;;;;;5014900;28;20409;-67
2023/10/15 07:41:50;;;;;;;2.70;1.47;;;;;;;;;;5014461;28;20442;-67
2023/10/15 07:44:16;;;;;;;4.60;1.60;;;;;;;;;;5014544;28;20412;-68
2023/10/15 07:46:45;;;;;;;4.33;1.67;;;;;;;;;;5016639;28;20550;-67
2023/10/15 07:49:16;;;;;;;2.90;1.80;;;;;;;;;;5034250;28;20501;-67
2023/10/15 07:51:42;;;;;;;3.60;1.80;;;;;;;;;;5034378;28;20426;-66
2023/10/15 07:54:08;;;;;;;3.33;2.00;;;;;;;;;;5034038;28;20924;-66
2023/10/15 07:56:34;;;;;;;3.77;1.97;;;;;;;;;;5034003;28;20424;-66
2023/10/15 07:59:04;;;;;;;1.97;1.03;;;;;;;;;;5000509;28;20530;-67
2023/10/15 08:01:30;;;;;;;3.50;1.50;;;;;;;;;;5010213;28;20520;-68
2023/10/15 08:03:59;;;;;;;2.63;1.30;;;;;;;;;;5018017;28;20924;-68
2023/10/15 08:06:25;;;;;;;3.17;1.40;;;;;;;;;;5000225;28;20506;-68
2023/10/15 08:08:50;;;;;;;2.87;1.20;;;;;;;;;;4997148;28;20785;-68
2023/10/15 08:11:16;;;;;;;3.50;2.00;;;;;;;;;;4997073;28;20488;-68
2023/10/15 08:13:42;;;;;;;2.80;1.63;;;;;;;;;;4997592;28;20414;-68
2023/10/15 08:16:08;;;;;;;5.90;1.50;;;;;;;;;;5031863;28;20424;-68
2023/10/15 08:18:34;;;;;;;3.63;1.73;;;;;;;;;;5037704;28;20413;-68
2023/10/15 08:21:00;;;;;;;6.63;2.40;;;;;;;;;;5037815;28;20441;-68
2023/10/15 08:23:27;;;;;;;3.30;1.30;;;;;;;;;;5025418;28;20430;-68
2023/10/15 08:25:53;;;;;;;3.40;1.87;;;;;;;;;;4996710;28;20454;-68
2023/10/15 08:28:19;;;;;;;2.90;1.63;;;;;;;;;;5006684;28;20521;-68
2023/10/15 08:30:45;;;;;;;3.87;1.30;;;;;;;;;;5034729;28;20857;-68
2023/10/15 08:33:12;;;;;;;4.90;2.07;;;;;;;;;;5034867;28;20410;-68
2023/10/15 08:35:38;;;;;;;3.80;1.93;;;;;;;;;;5035534;28;20468;-68
2023/10/15 08:38:07;;;;;;;4.10;1.70;;;;;;;;;;5034721;28;20910;-68
2023/10/15 08:40:37;;;;;;;1.90;0.70;;;;;;;;;;5034871;28;20402;-68
2023/10/15 08:43:08;;;;;;;2.10;1.00;;;;;;;;;;5034820;28;20414;-67
2023/10/15 08:45:34;;;;;;;5.97;1.63;;;;;;;;;;5034423;28;20444;-67
2023/10/15 08:48:01;;;;;;;3.50;1.00;;;;;;;;;;5035651;28;20419;-68
2023/10/15 08:50:29;;;;;;;2.80;1.20;;;;;;;;;;5035512;28;20406;-68
2023/10/15 08:52:56;;;;;;;2.60;1.10;;;;;;;;;;5035274;28;20458;-68
2023/10/15 08:55:25;;;;;;;5.50;1.20;;;;;;;;;;5033701;28;20472;-68
2023/10/15 08:57:54;;;;;;;3.20;1.70;;;;;;;;;;5035383;28;20796;-68
2023/10/15 09:00:27;;;;;;;4.30;1.83;;;;;;;;;;5035472;28;20483;-68
2023/10/15 09:02:54;;;;;;;2.10;1.00;;;;;;;;;;5034679;28;20493;-68
2023/10/15 09:05:20;;;;;;;3.80;1.50;;;;;;;;;;5034042;28;20418;-68
2023/10/15 09:07:47;;;;;;;2.90;1.70;;;;;;;;;;5033945;28;20544;-68
2023/10/15 09:10:15;;;;;;;2.77;1.80;;;;;;;;;;5033845;28;20419;-69
2023/10/15 09:12:41;;;;;;;3.50;1.13;;;;;;;;;;5033800;28;20448;-67
2023/10/15 09:15:16;;;;;;;2.70;1.30;;;;;;;;;;5033608;28;20498;-68
2023/10/15 09:17:42;;;;;;;5.00;1.10;;;;;;;;;;5033809;28;20425;-67
2023/10/15 09:20:09;;;;;;;5.77;1.80;;;;;;;;;;5034374;28;20410;-68
2023/10/15 09:22:38;;;;;;;2.90;1.40;;;;;;;;;;5033025;28;20965;-67
2023/10/15 09:25:06;;;;;;;2.73;1.60;;;;;;;;;;5032515;28;20448;-68
2023/10/15 09:27:32;;;;;;;5.63;2.00;;;;;;;;;;5034970;28;21035;-68
2023/10/15 09:30:14;;;;;;;2.70;1.43;;;;;;;;;;5034680;28;20414;-68
2023/10/15 09:32:40;;;;;;;5.23;2.37;;;;;;;;;;5033425;28;20445;-68
2023/10/15 09:35:06;;;;;;;2.30;1.10;;;;;;;;;;5032759;28;20905;-68
2023/10/15 09:37:32;;;;;;;2.83;1.30;;;;;;;;;;5032800;28;20423;-68
2023/10/15 09:39:59;;;;;;;2.97;1.90;;;;;;;;;;5032643;28;20425;-68
2023/10/15 09:42:33;;;;;;;4.40;1.63;;;;;;;;;;5033083;28;20429;-68
2023/10/15 09:45:01;;;;;;;4.53;1.70;;;;;;;;;;5033334;28;20545;-67
2023/10/15 09:47:27;;;;;;;3.50;1.53;;;;;;;;;;5033390;28;20485;-67
2023/10/15 09:49:54;;;;;;;2.80;1.17;;;;;;;;;;5033564;28;20947;-67
2023/10/15 09:52:20;;;;;;;4.70;1.40;;;;;;;;;;5033214;28;20439;-67
2023/10/15 09:54:48;;;;;;;3.23;1.20;;;;;;;;;;5033722;28;20487;-67
2023/10/15 09:57:16;;;;;;;2.10;0.87;;;;;;;;;;5035339;28;20417;-68
2023/10/15 09:59:42;;;;;;;4.47;1.20;;;;;;;;;;5035815;28;20908;-68
2023/10/15 10:02:12;;;;;;;3.40;1.27;;;;;;;;;;5035509;28;20445;-68
2023/10/15 10:05:01;;;;;;;2.63;1.53;;;;;;;;;;5034951;28;20447;-68
2023/10/15 10:07:33;;;;;;;3.63;1.73;;;;;;;;;;5029457;28;20466;-68
2023/10/15 10:10:18;;;;;;;3.33;1.20;;;;;;;;;;5035781;28;20417;-68
2023/10/15 10:13:04;;;;;;;2.53;1.40;;;;;;;;;;5035023;28;20491;-68
2023/10/15 10:15:33;;;;;;;1.90;1.00;;;;;;;;;;5033443;28;20416;-67
2023/10/15 10:18:00;;;;;;;3.47;1.67;;;;;;;;;;5034661;28;20415;-68
2023/10/15 10:20:33;;;;;;;2.37;1.37;;;;;;;;;;5033586;28;21026;-69
2023/10/15 10:23:00;;;;;;;2.87;1.50;;;;;;;;;;5033611;28;20493;-69
2023/10/15 10:25:35;;;;;;;3.73;1.93;;;;;;;;;;5034040;28;20417;-68
2023/10/15 10:28:11;;;;;;;2.50;1.40;;;;;;;;;;5035151;28;20413;-69
2023/10/15 10:30:42;;;;;;;2.40;1.57;;;;;;;;;;5034572;28;20447;-69
2023/10/15 10:33:09;;;;;;;2.67;1.33;;;;;;;;;;5034013;28;20406;-71
2023/10/15 10:35:43;;;;;;;5.23;1.70;;;;;;;;;;5034628;28;20424;-68
2023/10/15 10:38:16;;;;;;;6.83;1.50;;;11.80;23.00;;;;;;5037036;28;20413;-69
2023/10/15 10:40:51;;;;;;;5.00;1.40;;;11.60;22.90;;;;;;5039841;28;20400;-68
2023/10/15 10:43:24;;;;;;;5.10;1.60;;;;;;;;;;5038244;28;20408;-68
2023/10/15 10:45:56;;;;;;;3.13;1.23;;;;;;;;;;5037147;28;20409;-67
2023/10/15 10:48:22;;;;;;;4.63;1.63;;;;;;;;;;5037018;28;20678;-68
2023/10/15 10:50:48;;;;;;;3.33;1.57;;;;;;;;;;5038149;28;20412;-68
2023/10/15 10:53:14;;;;;;;4.03;0.90;;;;;;;;;;5038675;28;20505;-68
2023/10/15 10:55:40;;;;;;;3.13;1.40;;;;;;;;;;5039075;28;20770;-68
2023/10/15 10:58:24;;;;;;;4.50;1.40;;;;;;;;;;5038508;28;20505;-68
2023/10/15 11:00:49;;;;;;;2.90;1.40;;;10.50;32.40;;;;;;5038785;28;20414;-68
2023/10/15 11:03:15;;;;;;;5.50;1.93;;;10.90;32.80;;;;;;5039369;28;20425;-69
2023/10/15 11:05:41;;;;;;;6.07;1.93;;;11.20;32.00;;;;;;5039081;28;20647;-68
2023/10/15 11:08:20;;;;;;;6.80;2.97;;;11.20;25.90;;;;;;5037185;28;20410;-69
2023/10/15 11:10:47;;;;;;;7.90;3.33;;;10.80;23.90;;;;;;5038087;28;20410;-68
2023/10/15 11:13:13;;;;;;;3.93;2.20;;;11.00;26.30;;;;;;5038603;28;20507;-68
2023/10/15 11:15:38;;;;;;;4.20;2.20;;;10.90;25.10;;;;;;5039132;28;20529;-69
2023/10/15 11:18:08;;;;;;;7.83;1.57;;;11.30;23.70;;;;;;5040247;28;20180;-68
2023/10/15 11:20:35;;;;;;;4.33;1.73;;;11.60;24.60;;;;;;5039266;28;20179;-68
2023/10/15 11:23:01;;;;;;;2.70;1.10;;;12.30;24.20;;;;;;5038987;28;20829;-68
2023/10/15 11:25:28;;;;;;;3.13;1.30;;;;;;;;;;5038092;28;20489;-68
2023/10/15 11:27:54;;;;;;;4.47;2.00;;;;;;;;;;5037265;28;20468;-68
2023/10/15 11:30:21;;;;;;;3.40;1.30;;;;;;;;;;5037906;28;20417;-69
2023/10/15 11:32:48;;;;;;;2.33;1.27;;;12.70;17.40;;;;;;5036970;28;20443;-69
2023/10/15 11:35:15;;;;;;;3.27;1.77;;;12.20;17.80;;;;;;5038969;28;20486;-68
2023/10/15 11:37:42;;;;;;;4.63;2.00;;;12.00;21.00;;;;;;5037624;28;20451;-68
2023/10/15 11:40:11;;;;;;;8.73;1.87;;;12.10;19.10;;;;;;5039199;28;20428;-68
2023/10/15 11:42:47;;;;;;;3.10;1.80;;;12.00;20.90;;;;;;5038740;28;21043;-68
2023/10/15 11:45:18;;;;;;;3.80;1.83;;;12.10;21.10;;;;;;5038479;28;20421;-68
2023/10/15 11:47:44;;;;;;;3.13;1.60;;;;;;;;;;5038125;28;20560;-68
2023/10/15 11:50:12;;;;;;;5.10;1.50;;;;;;;;;;5036978;28;20936;-67
2023/10/15 11:52:44;;;;;;;7.80;2.03;;;;;;;;;;5037930;28;20433;-68
2023/10/15 11:55:19;;;;;;;3.23;1.63;;;;;;;;;;5038347;28;20415;-68
2023/10/15 11:57:49;;;;;;;2.67;1.60;;;;;;;;;;5037659;28;20429;-69
2023/10/15 12:00:22;;;;;;;3.23;1.40;;;;;;;;;;5036660;28;20482;-69
2023/10/15 12:02:49;;;;;;;3.57;1.87;;;;;;;;;;5037042;28;20458;-68
2023/10/15 12:05:15;;;;;;;4.17;1.60;;;;;;;;;;5036014;28;20480;-68
2023/10/15 12:07:40;;;;;;;3.80;1.90;;;;;;;;;;5037128;28;20839;-69
2023/10/15 12:10:14;;;;;;;2.30;1.23;;;;;;;;;;5037607;28;20414;-68
2023/10/15 12:12:41;;;;;;;6.50;1.93;;;;;;;;;;5037514;28;20518;-69
2023/10/15 12:15:07;;;;;;;5.30;1.77;;;;;;;;;;5037343;28;20490;-69
2023/10/15 12:17:33;;;;;;;2.33;1.70;;;;;;;;;;5035407;28;20430;-68
2023/10/15 12:19:59;;;;;;;3.07;1.80;;;;;;;;;;5037378;28;20418;-68
2023/10/15 12:22:25;;;;;;;3.57;1.70;;;;;;;;;;5037304;28;20465;-68
2023/10/15 12:24:51;;;;;;;3.80;1.70;;;;;;;;;;5036435;28;20426;-68
2023/10/15 12:27:17;;;;;;;2.63;1.73;;;;;;;;;;5037949;28;20485;-68
2023/10/15 12:29:43;;;;;;;2.30;1.37;;;;;;;;;;5037763;28;20414;-68
2023/10/15 12:32:10;;;;;;;2.23;1.50;;;;;;;;;;5037171;28;20437;-67
2023/10/15 12:34:39;;;;;;;2.50;1.83;;;;;;;;;;5035302;28;20412;-67
2023/10/15 12:37:12;;;;;;;4.30;2.30;;;;;;;;;;5035644;28;20422;-69
2023/10/15 12:39:40;;;;;;;4.20;2.13;;;;;;;;;;5038907;28;20410;-68
2023/10/15 12:42:08;;;;;;;2.27;1.43;;;;;;;;;;5037920;28;20592;-68
2023/10/15 12:44:39;;;;;;;2.33;1.63;;;;;;;;;;5038647;28;20406;-68
2023/10/15 12:47:05;;;;;;;2.20;1.73;;;;;;;;;;5036272;28;20481;-68
2023/10/15 12:49:31;;;;;;;4.00;2.03;;;;;;;;;;5037628;28;20487;-68
2023/10/15 12:51:58;;;;;;;2.37;2.10;;;;;;;;;;5037863;28;20810;-68
2023/10/15 12:54:24;;;;;;;2.80;2.10;;;;;;;;;;5036922;28;20412;-68
2023/10/15 12:56:50;;;;;;;2.57;2.00;;;;;;;;;;5036029;28;20417;-68
2023/10/15 12:59:16;;;;;;;4.00;2.53;;;;;;;;;;5037871;28;20418;-68
2023/10/15 13:01:43;;;;;;;2.17;1.70;;;;;;;;;;5037017;28;20481;-68
2023/10/15 13:04:09;;;;;;;2.57;2.03;;;;;;;;;;5037968;28;20848;-67
2023/10/15 13:06:35;;;;;;;3.47;2.03;;;;;;;;;;5037184;28;20454;-67
2023/10/15 13:09:08;;;;;;;2.10;1.70;;;;;;;;;;5036733;28;20422;-68
2023/10/15 13:11:34;;;;;;;2.47;2.27;;;;;;;;;;5037398;28;20432;-68
2023/10/15 13:14:00;;;;;;;6.70;2.10;;;;;;;;;;5037874;28;20448;-68
2023/10/15 13:16:26;;;;;;;2.30;2.10;;;;;;;;;;5037244;28;20422;-68
2023/10/15 13:18:52;;;;;;;2.80;2.10;;;;;;;;;;5037152;28;20509;-68
2023/10/15 13:21:18;;;;;;;6.57;1.80;;;;;;;;;;5037126;28;20430;-67
2023/10/15 13:23:44;;;;;;;2.70;1.70;;;;;;;;;;5036951;28;20786;-67
2023/10/15 13:26:10;;;;;;;2.47;1.60;;;;;;;;;;5036744;28;20453;-67
2023/10/15 13:28:37;;;;;;;2.87;2.60;;;;;;;;;;5037432;28;20407;-68
2023/10/15 13:31:02;;;;;;;4.87;2.37;;;;;;;;;;5037363;28;20434;-68
2023/10/15 13:33:28;;;;;;;2.33;2.03;;;;;;;;;;5037410;28;20416;-68
2023/10/15 13:35:54;;;;;;;2.80;2.00;;;;;;;;;;5036844;28;20406;-68
2023/10/15 13:38:21;;;;;;;2.83;1.80;;;;;;;;;;5036850;28;20453;-69
2023/10/15 13:40:47;;;;;;;2.67;1.50;;;;;;;;;;5037131;28;20472;-68
2023/10/15 13:43:13;;;;;;;3.80;2.10;;;;;;;;;;5036974;28;20777;-69
2023/10/15 13:45:39;;;;;;;2.50;1.60;;;;;;;;;;5037379;28;20408;-68
2023/10/15 13:48:06;;;;;;;3.10;2.07;;;;;;;;;;5036187;28;21059;-69
2023/10/15 13:50:32;;;;;;;2.40;1.70;;;;;;;;;;5036502;28;20480;-67
2023/10/15 13:52:58;;;;;;;3.10;2.37;;;;;;;;;;5036873;28;20402;-67
2023/10/15 13:55:24;;;;;;;5.03;1.70;;;;;;;;;;5036051;28;20417;-69
2023/10/15 13:57:52;;;;;;;2.67;2.20;;;;;;;;;;5036368;28;20413;-67
2023/10/15 14:00:23;;;;;;;4.07;2.03;;;;;;;;;;5037267;28;20490;-67
2023/10/15 14:02:50;;;;;;;3.03;2.37;;;;;;;;;;5033327;28;20972;-67
2023/10/15 14:05:17;;;;;;;2.90;1.90;;;;;;;;;;5032439;28;20493;-66
2023/10/15 14:07:45;;;;;;;3.23;2.93;;;;;;;;;;5031961;28;20617;-66
2023/10/15 14:10:12;;;;;;;2.43;2.00;;;;;;;;;;5032217;28;20417;-67
2023/10/15 14:12:38;;;;;;;3.40;2.20;;;;;;;;;;5032066;28;20430;-67
2023/10/15 14:15:04;;;;;;;2.73;2.10;;;;;;;;;;5032346;28;20414;-67
2023/10/15 14:17:31;;;;;;;3.40;2.27;;;;;;;;;;5031930;28;20504;-67
2023/10/15 14:19:58;;;;;;;2.77;2.40;;;;;;;;;;5032085;28;20414;-67
2023/10/15 14:22:24;;;;;;;2.23;2.03;;;;;;;;;;5032156;28;20461;-67
2023/10/15 14:24:51;;;;;;;3.50;2.20;;;;;;;;;;5031900;28;20815;-66
2023/10/15 14:27:17;;;;;;;2.23;2.03;;;;;;;;;;5031828;28;20862;-67
2023/10/15 14:29:43;;;;;;;4.20;2.70;;;;;;;;;;5031876;28;20434;-66
2023/10/15 14:32:09;;;;;;;2.70;2.30;;;;;;;;;;5031889;28;20461;-67
2023/10/15 14:34:35;;;;;;;8.37;2.53;;;;;;;;;;5031821;28;20413;-67
2023/10/15 14:37:01;;;;;;;2.70;1.83;;;;;;;;;;5031405;28;20465;-67
2023/10/15 14:39:27;;;;;;;3.70;2.20;;;;;;;;;;5031353;28;20443;-66
2023/10/15 14:41:57;;;;;;;4.70;2.27;;;;;;;;;;5031368;28;20446;-66
2023/10/15 14:44:23;;;;;;;2.50;2.30;;;;;;;;;;5031636;28;20410;-67
2023/10/15 14:46:49;;;;;;;4.87;2.60;;;;;;;;;;5031302;28;20466;-66
2023/10/15 14:49:15;;;;;;;2.67;2.37;;;;;;;;;;5031608;28;20414;-66
2023/10/15 14:51:42;;;;;;;2.40;2.17;;;;;;;;;;5031422;28;20445;-67
2023/10/15 14:54:09;;;;;;;3.80;2.03;;;;;;;;;;5031394;28;20918;-66